sensor_id;sensor_type;location;lat;lon;timestamp;temperature;humidity
71304;DHT22;59091;47.446;19.148;2022-07-29T00:01:20;26.22;43.33
71304;DHT22;59091;47.446;19.148;2022-07-29T00:03:45;26.21;43.20
71304;DHT22;59091;47.446;19.148;2022-07-29T00:06:11;26.09;42.94
71304;DHT22;59091;47.446;19.148;2022-07-29T00:08:36;26.16;43.19
71304;DHT22;59091;47.446;19.148;2022-07-29T00:11:02;26.16;42.99
71304;DHT22;59091;47.446;19.148;2022-07-29T00:13:27;26.12;43.08
71304;DHT22;59091;47.446;19.148;2022-07-29T00:15:52;25.91;43.43
71304;DHT22;59091;47.446;19.148;2022-07-29T00:18:18;25.86;43.33
71304;DHT22;59091;47.446;19.148;2022-07-29T00:20:43;25.85;43.71
71304;DHT22;59091;47.446;19.148;2022-07-29T00:23:09;25.82;43.78
71304;DHT22;59091;47.446;19.148;2022-07-29T00:25:34;25.80;43.85
71304;DHT22;59091;47.446;19.148;2022-07-29T00:27:59;25.61;43.82
71304;DHT22;59091;47.446;19.148;2022-07-29T00:30:25;25.64;44.27
71304;DHT22;59091;47.446;19.148;2022-07-29T00:32:50;25.51;43.91
71304;DHT22;59091;47.446;19.148;2022-07-29T00:35:16;25.53;44.06
71304;DHT22;59091;47.446;19.148;2022-07-29T00:37:59;25.48;44.00
71304;DHT22;59091;47.446;19.148;2022-07-29T00:40:25;25.54;43.71
71304;DHT22;59091;47.446;19.148;2022-07-29T00:42:51;25.34;44.37
71304;DHT22;59091;47.446;19.148;2022-07-29T00:45:17;25.51;44.90
71304;DHT22;59091;47.446;19.148;2022-07-29T00:47:43;25.53;43.93
71304;DHT22;59091;47.446;19.148;2022-07-29T00:50:10;25.60;43.81
71304;DHT22;59091;47.446;19.148;2022-07-29T00:52:38;25.37;44.23
71304;DHT22;59091;47.446;19.148;2022-07-29T00:55:06;25.40;44.25
71304;DHT22;59091;47.446;19.148;2022-07-29T00:57:32;25.34;44.50
71304;DHT22;59091;47.446;19.148;2022-07-29T00:59:58;25.38;44.28
71304;DHT22;59091;47.446;19.148;2022-07-29T01:02:24;25.48;44.24
71304;DHT22;59091;47.446;19.148;2022-07-29T01:04:49;25.53;44.71
71304;DHT22;59091;47.446;19.148;2022-07-29T01:07:16;25.51;44.15
71304;DHT22;59091;47.446;19.148;2022-07-29T01:09:42;25.45;44.34
71304;DHT22;59091;47.446;19.148;2022-07-29T01:12:08;25.51;44.64
71304;DHT22;59091;47.446;19.148;2022-07-29T01:14:34;25.61;45.09
71304;DHT22;59091;47.446;19.148;2022-07-29T01:17:07;25.64;44.27
71304;DHT22;59091;47.446;19.148;2022-07-29T01:22:29;25.55;44.57
71304;DHT22;59091;47.446;19.148;2022-07-29T01:25:17;25.47;44.70
71304;DHT22;59091;47.446;19.148;2022-07-29T01:27:58;25.36;44.61
71304;DHT22;59091;47.446;19.148;2022-07-29T01:30:27;25.40;45.22
71304;DHT22;59091;47.446;19.148;2022-07-29T01:33:07;25.37;45.07
71304;DHT22;59091;47.446;19.148;2022-07-29T01:35:38;25.43;45.52
71304;DHT22;59091;47.446;19.148;2022-07-29T01:38:15;25.50;45.19
71304;DHT22;59091;47.446;19.148;2022-07-29T01:40:52;25.51;45.80
71304;DHT22;59091;47.446;19.148;2022-07-29T01:43:22;25.57;45.24
71304;DHT22;59091;47.446;19.148;2022-07-29T01:46:02;25.51;45.25
71304;DHT22;59091;47.446;19.148;2022-07-29T01:48:52;25.41;44.95
71304;DHT22;59091;47.446;19.148;2022-07-29T01:51:27;25.34;45.17
71304;DHT22;59091;47.446;19.148;2022-07-29T01:56:26;25.48;45.58
71304;DHT22;59091;47.446;19.148;2022-07-29T01:58:56;25.45;45.90
71304;DHT22;59091;47.446;19.148;2022-07-29T02:01:24;25.45;46.13
71304;DHT22;59091;47.446;19.148;2022-07-29T02:03:50;25.45;46.27
71304;DHT22;59091;47.446;19.148;2022-07-29T02:06:20;25.43;46.10
71304;DHT22;59091;47.446;19.148;2022-07-29T02:08:46;25.30;45.42
71304;DHT22;59091;47.446;19.148;2022-07-29T02:11:12;25.30;46.10
71304;DHT22;59091;47.446;19.148;2022-07-29T02:13:39;25.26;45.70
71304;DHT22;59091;47.446;19.148;2022-07-29T02:16:06;25.23;45.68
71304;DHT22;59091;47.446;19.148;2022-07-29T02:18:36;25.16;45.57
71304;DHT22;59091;47.446;19.148;2022-07-29T02:21:03;25.03;45.73
71304;DHT22;59091;47.446;19.148;2022-07-29T02:23:30;25.00;45.74
71304;DHT22;59091;47.446;19.148;2022-07-29T02:25:56;25.04;46.24
71304;DHT22;59091;47.446;19.148;2022-07-29T02:28:26;24.95;45.90
71304;DHT22;59091;47.446;19.148;2022-07-29T02:30:53;24.95;47.63
71304;DHT22;59091;47.446;19.148;2022-07-29T02:33:19;24.96;47.61
71304;DHT22;59091;47.446;19.148;2022-07-29T02:35:47;24.99;47.73
71304;DHT22;59091;47.446;19.148;2022-07-29T02:38:14;25.03;48.26
71304;DHT22;59091;47.446;19.148;2022-07-29T02:41:01;25.03;48.59
71304;DHT22;59091;47.446;19.148;2022-07-29T02:43:30;25.00;48.84
71304;DHT22;59091;47.446;19.148;2022-07-29T02:45:56;25.02;48.70
71304;DHT22;59091;47.446;19.148;2022-07-29T02:48:33;25.06;48.51
71304;DHT22;59091;47.446;19.148;2022-07-29T02:51:06;25.06;48.30
71304;DHT22;59091;47.446;19.148;2022-07-29T02:53:33;25.04;47.72
71304;DHT22;59091;47.446;19.148;2022-07-29T02:56:03;25.40;47.64
71304;DHT22;59091;47.446;19.148;2022-07-29T02:58:34;25.61;46.33
71304;DHT22;59091;47.446;19.148;2022-07-29T03:01:15;25.84;45.99
71304;DHT22;59091;47.446;19.148;2022-07-29T03:03:42;25.99;45.57
71304;DHT22;59091;47.446;19.148;2022-07-29T03:06:12;26.25;44.99
71304;DHT22;59091;47.446;19.148;2022-07-29T03:08:38;26.19;45.10
71304;DHT22;59091;47.446;19.148;2022-07-29T03:11:05;26.21;44.81
71304;DHT22;59091;47.446;19.148;2022-07-29T03:13:31;26.22;44.88
71304;DHT22;59091;47.446;19.148;2022-07-29T03:15:57;26.24;44.76
71304;DHT22;59091;47.446;19.148;2022-07-29T03:18:23;26.21;44.33
71304;DHT22;59091;47.446;19.148;2022-07-29T03:20:49;26.24;44.65
71304;DHT22;59091;47.446;19.148;2022-07-29T03:23:19;26.33;44.44
71304;DHT22;59091;47.446;19.148;2022-07-29T03:25:45;26.35;44.63
71304;DHT22;59091;47.446;19.148;2022-07-29T03:28:11;26.40;44.45
71304;DHT22;59091;47.446;19.148;2022-07-29T03:30:37;26.39;44.41
71304;DHT22;59091;47.446;19.148;2022-07-29T03:33:02;26.42;44.56
71304;DHT22;59091;47.446;19.148;2022-07-29T03:35:27;26.40;44.55
71304;DHT22;59091;47.446;19.148;2022-07-29T03:37:53;26.39;44.35
71304;DHT22;59091;47.446;19.148;2022-07-29T03:40:25;26.36;44.46
71304;DHT22;59091;47.446;19.148;2022-07-29T03:42:53;26.33;44.50
71304;DHT22;59091;47.446;19.148;2022-07-29T03:45:19;26.26;44.38
71304;DHT22;59091;47.446;19.148;2022-07-29T03:47:50;26.28;44.12
71304;DHT22;59091;47.446;19.148;2022-07-29T03:50:16;26.12;44.20
71304;DHT22;59091;47.446;19.148;2022-07-29T03:52:42;26.09;45.06
71304;DHT22;59091;47.446;19.148;2022-07-29T03:55:08;26.11;44.89
71304;DHT22;59091;47.446;19.148;2022-07-29T03:57:34;26.21;44.59
71304;DHT22;59091;47.446;19.148;2022-07-29T04:00:02;26.18;43.89
71304;DHT22;59091;47.446;19.148;2022-07-29T04:02:29;26.16;44.41
71304;DHT22;59091;47.446;19.148;2022-07-29T04:04:54;26.12;43.54
71304;DHT22;59091;47.446;19.148;2022-07-29T04:07:20;26.12;44.55
71304;DHT22;59091;47.446;19.148;2022-07-29T04:09:45;26.18;44.32
71304;DHT22;59091;47.446;19.148;2022-07-29T04:12:11;26.15;44.21
71304;DHT22;59091;47.446;19.148;2022-07-29T04:14:36;26.08;44.21
71304;DHT22;59091;47.446;19.148;2022-07-29T04:17:03;26.11;44.01
71304;DHT22;59091;47.446;19.148;2022-07-29T04:19:28;25.99;43.68
71304;DHT22;59091;47.446;19.148;2022-07-29T04:21:54;26.01;44.37
71304;DHT22;59091;47.446;19.148;2022-07-29T04:24:19;25.95;44.56
71304;DHT22;59091;47.446;19.148;2022-07-29T04:26:46;25.98;44.47
71304;DHT22;59091;47.446;19.148;2022-07-29T04:29:12;25.55;44.88
71304;DHT22;59091;47.446;19.148;2022-07-29T04:31:40;25.64;44.99
71304;DHT22;59091;47.446;19.148;2022-07-29T04:34:05;25.71;44.90
71304;DHT22;59091;47.446;19.148;2022-07-29T04:36:31;25.88;45.00
71304;DHT22;59091;47.446;19.148;2022-07-29T04:38:56;25.88;44.33
71304;DHT22;59091;47.446;19.148;2022-07-29T04:41:22;25.94;44.86
71304;DHT22;59091;47.446;19.148;2022-07-29T04:43:47;25.91;44.82
71304;DHT22;59091;47.446;19.148;2022-07-29T04:46:12;25.96;44.51
71304;DHT22;59091;47.446;19.148;2022-07-29T04:48:38;25.99;44.25
71304;DHT22;59091;47.446;19.148;2022-07-29T04:51:03;25.78;44.54
71304;DHT22;59091;47.446;19.148;2022-07-29T04:53:28;25.70;45.11
71304;DHT22;59091;47.446;19.148;2022-07-29T04:55:54;25.85;45.25
71304;DHT22;59091;47.446;19.148;2022-07-29T04:58:19;25.98;45.16
71304;DHT22;59091;47.446;19.148;2022-07-29T05:00:45;26.11;44.91
71304;DHT22;59091;47.446;19.148;2022-07-29T05:03:10;26.21;44.51
71304;DHT22;59091;47.446;19.148;2022-07-29T05:05:36;26.19;44.04
71304;DHT22;59091;47.446;19.148;2022-07-29T05:08:01;26.35;44.06
71304;DHT22;59091;47.446;19.148;2022-07-29T05:10:27;26.47;44.05
71304;DHT22;59091;47.446;19.148;2022-07-29T05:12:53;26.57;43.66
71304;DHT22;59091;47.446;19.148;2022-07-29T05:15:19;26.53;43.99
71304;DHT22;59091;47.446;19.148;2022-07-29T05:17:45;26.56;43.59
71304;DHT22;59091;47.446;19.148;2022-07-29T05:20:10;26.61;43.76
71304;DHT22;59091;47.446;19.148;2022-07-29T05:22:35;26.80;43.21
71304;DHT22;59091;47.446;19.148;2022-07-29T05:25:01;26.93;42.88
71304;DHT22;59091;47.446;19.148;2022-07-29T05:27:27;27.04;42.35
71304;DHT22;59091;47.446;19.148;2022-07-29T05:29:52;27.15;42.49
71304;DHT22;59091;47.446;19.148;2022-07-29T05:32:18;27.04;42.54
71304;DHT22;59091;47.446;19.148;2022-07-29T05:34:43;26.90;42.16
71304;DHT22;59091;47.446;19.148;2022-07-29T05:37:09;26.93;42.89
71304;DHT22;59091;47.446;19.148;2022-07-29T05:39:34;26.90;42.39
71304;DHT22;59091;47.446;19.148;2022-07-29T05:41:59;26.79;42.72
71304;DHT22;59091;47.446;19.148;2022-07-29T05:44:25;26.76;42.86
71304;DHT22;59091;47.446;19.148;2022-07-29T05:46:50;26.59;42.97
71304;DHT22;59091;47.446;19.148;2022-07-29T05:49:15;26.79;43.09
71304;DHT22;59091;47.446;19.148;2022-07-29T05:51:41;26.82;42.73
71304;DHT22;59091;47.446;19.148;2022-07-29T05:54:06;26.91;42.85
71304;DHT22;59091;47.446;19.148;2022-07-29T05:56:32;27.15;42.76
71304;DHT22;59091;47.446;19.148;2022-07-29T05:58:57;27.28;42.36
71304;DHT22;59091;47.446;19.148;2022-07-29T06:01:23;27.38;41.63
71304;DHT22;59091;47.446;19.148;2022-07-29T06:03:49;27.51;41.46
71304;DHT22;59091;47.446;19.148;2022-07-29T06:06:14;27.52;41.96
71304;DHT22;59091;47.446;19.148;2022-07-29T06:08:40;27.48;40.89
71304;DHT22;59091;47.446;19.148;2022-07-29T06:11:06;27.68;40.90
71304;DHT22;59091;47.446;19.148;2022-07-29T06:13:32;27.69;40.99
71304;DHT22;59091;47.446;19.148;2022-07-29T06:15:58;27.99;41.28
71304;DHT22;59091;47.446;19.148;2022-07-29T06:18:23;28.29;40.61
71304;DHT22;59091;47.446;19.148;2022-07-29T06:20:52;28.43;39.35
71304;DHT22;59091;47.446;19.148;2022-07-29T06:23:19;28.48;39.12
71304;DHT22;59091;47.446;19.148;2022-07-29T06:25:45;28.43;40.09
71304;DHT22;59091;47.446;19.148;2022-07-29T06:28:10;28.67;39.52
71304;DHT22;59091;47.446;19.148;2022-07-29T06:30:36;28.77;38.88
71304;DHT22;59091;47.446;19.148;2022-07-29T06:33:02;28.68;39.64
71304;DHT22;59091;47.446;19.148;2022-07-29T06:35:27;28.82;39.02
71304;DHT22;59091;47.446;19.148;2022-07-29T06:37:53;29.16;39.92
71304;DHT22;59091;47.446;19.148;2022-07-29T06:40:19;29.58;38.43
71304;DHT22;59091;47.446;19.148;2022-07-29T06:43:03;29.63;38.29
71304;DHT22;59091;47.446;19.148;2022-07-29T06:45:28;29.90;37.77
71304;DHT22;59091;47.446;19.148;2022-07-29T06:47:54;29.86;38.71
71304;DHT22;59091;47.446;19.148;2022-07-29T06:50:19;30.21;37.62
71304;DHT22;59091;47.446;19.148;2022-07-29T06:52:45;30.44;36.75
71304;DHT22;59091;47.446;19.148;2022-07-29T06:55:10;30.45;36.87
71304;DHT22;59091;47.446;19.148;2022-07-29T06:57:36;30.59;36.45
71304;DHT22;59091;47.446;19.148;2022-07-29T07:00:01;30.62;36.07
71304;DHT22;59091;47.446;19.148;2022-07-29T07:02:29;30.78;36.39
71304;DHT22;59091;47.446;19.148;2022-07-29T07:04:56;30.83;36.17
71304;DHT22;59091;47.446;19.148;2022-07-29T07:07:21;31.04;36.27
71304;DHT22;59091;47.446;19.148;2022-07-29T07:09:46;31.10;35.49
71304;DHT22;59091;47.446;19.148;2022-07-29T07:12:12;30.95;36.11
71304;DHT22;59091;47.446;19.148;2022-07-29T07:14:37;31.00;37.18
71304;DHT22;59091;47.446;19.148;2022-07-29T07:17:03;31.08;37.13
71304;DHT22;59091;47.446;19.148;2022-07-29T07:19:29;31.09;35.71
71304;DHT22;59091;47.446;19.148;2022-07-29T07:21:54;30.99;36.51
71304;DHT22;59091;47.446;19.148;2022-07-29T07:24:20;31.00;36.15
71304;DHT22;59091;47.446;19.148;2022-07-29T07:26:45;31.43;35.48
71304;DHT22;59091;47.446;19.148;2022-07-29T07:29:10;31.54;35.10
71304;DHT22;59091;47.446;19.148;2022-07-29T07:31:37;31.85;34.50
71304;DHT22;59091;47.446;19.148;2022-07-29T07:34:03;31.97;34.40
71304;DHT22;59091;47.446;19.148;2022-07-29T07:36:28;32.43;34.03
71304;DHT22;59091;47.446;19.148;2022-07-29T07:38:54;32.52;35.23
71304;DHT22;59091;47.446;19.148;2022-07-29T07:41:20;32.87;34.21
71304;DHT22;59091;47.446;19.148;2022-07-29T07:43:45;32.92;33.94
71304;DHT22;59091;47.446;19.148;2022-07-29T07:46:11;32.86;34.27
71304;DHT22;59091;47.446;19.148;2022-07-29T07:48:36;33.04;33.08
71304;DHT22;59091;47.446;19.148;2022-07-29T07:51:01;32.86;35.52
71304;DHT22;59091;47.446;19.148;2022-07-29T07:53:27;32.99;33.29
71304;DHT22;59091;47.446;19.148;2022-07-29T07:55:54;33.23;32.96
71304;DHT22;59091;47.446;19.148;2022-07-29T07:58:20;33.80;31.61
71304;DHT22;59091;47.446;19.148;2022-07-29T08:00:45;34.26;31.59
71304;DHT22;59091;47.446;19.148;2022-07-29T08:03:11;34.42;32.10
71304;DHT22;59091;47.446;19.148;2022-07-29T08:05:41;34.42;30.56
71304;DHT22;59091;47.446;19.148;2022-07-29T08:08:07;34.83;31.48
71304;DHT22;59091;47.446;19.148;2022-07-29T08:10:32;35.13;29.77
71304;DHT22;59091;47.446;19.148;2022-07-29T08:13:17;35.30;29.41
71304;DHT22;59091;47.446;19.148;2022-07-29T08:15:43;35.10;29.19
71304;DHT22;59091;47.446;19.148;2022-07-29T08:18:10;35.61;28.94
71304;DHT22;59091;47.446;19.148;2022-07-29T08:20:36;35.89;28.66
71304;DHT22;59091;47.446;19.148;2022-07-29T08:23:03;35.77;28.72
71304;DHT22;59091;47.446;19.148;2022-07-29T08:25:29;35.85;28.56
71304;DHT22;59091;47.446;19.148;2022-07-29T08:27:55;35.80;28.97
71304;DHT22;59091;47.446;19.148;2022-07-29T08:30:20;35.59;30.20
71304;DHT22;59091;47.446;19.148;2022-07-29T08:32:47;35.71;30.28
71304;DHT22;59091;47.446;19.148;2022-07-29T08:35:13;35.51;30.99
71304;DHT22;59091;47.446;19.148;2022-07-29T08:37:38;35.92;30.25
71304;DHT22;59091;47.446;19.148;2022-07-29T08:40:04;36.57;28.26
71304;DHT22;59091;47.446;19.148;2022-07-29T08:42:31;36.42;27.63
71304;DHT22;59091;47.446;19.148;2022-07-29T08:44:57;36.70;28.37
71304;DHT22;59091;47.446;19.148;2022-07-29T08:47:23;37.01;28.30
71304;DHT22;59091;47.446;19.148;2022-07-29T08:49:51;36.91;26.98
71304;DHT22;59091;47.446;19.148;2022-07-29T08:52:18;37.07;26.71
71304;DHT22;59091;47.446;19.148;2022-07-29T08:54:44;37.51;27.15
71304;DHT22;59091;47.446;19.148;2022-07-29T08:57:12;37.46;26.38
71304;DHT22;59091;47.446;19.148;2022-07-29T08:59:39;37.65;27.02
71304;DHT22;59091;47.446;19.148;2022-07-29T09:02:14;37.22;25.94
71304;DHT22;59091;47.446;19.148;2022-07-29T09:04:41;37.42;26.81
71304;DHT22;59091;47.446;19.148;2022-07-29T09:07:07;37.59;25.90
71304;DHT22;59091;47.446;19.148;2022-07-29T09:09:33;37.20;26.12
71304;DHT22;59091;47.446;19.148;2022-07-29T09:11:59;37.00;26.25
71304;DHT22;59091;47.446;19.148;2022-07-29T09:14:25;37.30;27.76
71304;DHT22;59091;47.446;19.148;2022-07-29T09:19:30;37.34;26.82
71304;DHT22;59091;47.446;19.148;2022-07-29T09:21:59;37.58;25.75
71304;DHT22;59091;47.446;19.148;2022-07-29T09:27:07;37.51;26.01
71304;DHT22;59091;47.446;19.148;2022-07-29T09:29:33;36.56;26.93
71304;DHT22;59091;47.446;19.148;2022-07-29T09:31:58;36.93;26.01
71304;DHT22;59091;47.446;19.148;2022-07-29T09:34:28;36.54;26.08
71304;DHT22;59091;47.446;19.148;2022-07-29T09:36:56;36.35;27.25
71304;DHT22;59091;47.446;19.148;2022-07-29T09:39:32;36.40;28.36
71304;DHT22;59091;47.446;19.148;2022-07-29T09:42:03;36.32;26.61
71304;DHT22;59091;47.446;19.148;2022-07-29T09:44:49;35.98;25.85
71304;DHT22;59091;47.446;19.148;2022-07-29T09:47:18;36.02;26.03
71304;DHT22;59091;47.446;19.148;2022-07-29T09:50:10;36.03;27.30
71304;DHT22;59091;47.446;19.148;2022-07-29T09:52:45;35.61;27.38
71304;DHT22;59091;47.446;19.148;2022-07-29T09:55:12;35.55;27.10
71304;DHT22;59091;47.446;19.148;2022-07-29T09:57:37;35.38;26.51
71304;DHT22;59091;47.446;19.148;2022-07-29T10:00:10;35.38;27.79
71304;DHT22;59091;47.446;19.148;2022-07-29T10:02:38;35.34;26.55
71304;DHT22;59091;47.446;19.148;2022-07-29T10:05:06;35.18;26.40
71304;DHT22;59091;47.446;19.148;2022-07-29T10:07:54;35.17;27.52
71304;DHT22;59091;47.446;19.148;2022-07-29T10:10:22;35.29;28.50
71304;DHT22;59091;47.446;19.148;2022-07-29T10:12:53;35.48;26.80
71304;DHT22;59091;47.446;19.148;2022-07-29T10:15:21;35.71;28.12
71304;DHT22;59091;47.446;19.148;2022-07-29T10:17:47;35.35;27.23
71304;DHT22;59091;47.446;19.148;2022-07-29T10:20:13;35.38;27.14
71304;DHT22;59091;47.446;19.148;2022-07-29T10:22:40;35.57;27.08
71304;DHT22;59091;47.446;19.148;2022-07-29T10:25:05;35.47;26.70
71304;DHT22;59091;47.446;19.148;2022-07-29T10:27:31;35.29;27.57
71304;DHT22;59091;47.446;19.148;2022-07-29T10:29:56;35.14;27.53
71304;DHT22;59091;47.446;19.148;2022-07-29T10:40:18;35.86;26.80
71304;DHT22;59091;47.446;19.148;2022-07-29T10:43:17;36.15;26.08
71304;DHT22;59091;47.446;19.148;2022-07-29T10:45:46;36.20;27.22
71304;DHT22;59091;47.446;19.148;2022-07-29T10:48:13;35.98;24.71
71304;DHT22;59091;47.446;19.148;2022-07-29T10:50:55;36.01;25.50
71304;DHT22;59091;47.446;19.148;2022-07-29T10:53:22;36.26;25.16
71304;DHT22;59091;47.446;19.148;2022-07-29T10:55:49;36.69;25.38
71304;DHT22;59091;47.446;19.148;2022-07-29T10:58:22;36.81;25.14
71304;DHT22;59091;47.446;19.148;2022-07-29T11:00:52;36.77;25.03
71304;DHT22;59091;47.446;19.148;2022-07-29T11:03:43;36.59;24.75
71304;DHT22;59091;47.446;19.148;2022-07-29T11:06:10;36.33;26.77
71304;DHT22;59091;47.446;19.148;2022-07-29T11:08:36;36.39;27.07
71304;DHT22;59091;47.446;19.148;2022-07-29T11:13:53;36.98;25.70
71304;DHT22;59091;47.446;19.148;2022-07-29T11:16:22;37.34;25.33
71304;DHT22;59091;47.446;19.148;2022-07-29T11:21:40;37.01;24.66
71304;DHT22;59091;47.446;19.148;2022-07-29T11:24:32;36.98;25.56
71304;DHT22;59091;47.446;19.148;2022-07-29T11:29:57;36.79;24.62
71304;DHT22;59091;47.446;19.148;2022-07-29T11:32:25;36.42;24.68
71304;DHT22;59091;47.446;19.148;2022-07-29T11:46:12;36.63;24.01
71304;DHT22;59091;47.446;19.148;2022-07-29T11:48:42;36.67;23.63
71304;DHT22;59091;47.446;19.148;2022-07-29T11:51:10;36.32;24.44
71304;DHT22;59091;47.446;19.148;2022-07-29T11:53:39;36.49;24.04
71304;DHT22;59091;47.446;19.148;2022-07-29T11:56:08;36.63;23.95
71304;DHT22;59091;47.446;19.148;2022-07-29T11:58:34;37.00;23.20
71304;DHT22;59091;47.446;19.148;2022-07-29T12:01:00;37.20;23.40
71304;DHT22;59091;47.446;19.148;2022-07-29T12:03:27;37.22;24.35
71304;DHT22;59091;47.446;19.148;2022-07-29T12:05:54;37.31;23.56
71304;DHT22;59091;47.446;19.148;2022-07-29T12:08:21;36.95;24.48
71304;DHT22;59091;47.446;19.148;2022-07-29T12:10:48;36.70;23.58
71304;DHT22;59091;47.446;19.148;2022-07-29T12:13:16;37.13;24.70
71304;DHT22;59091;47.446;19.148;2022-07-29T12:15:42;37.66;24.58
71304;DHT22;59091;47.446;19.148;2022-07-29T12:18:20;37.98;23.54
71304;DHT22;59091;47.446;19.148;2022-07-29T12:20:47;37.61;23.18
71304;DHT22;59091;47.446;19.148;2022-07-29T12:23:13;37.94;23.74
71304;DHT22;59091;47.446;19.148;2022-07-29T12:25:41;38.26;23.21
71304;DHT22;59091;47.446;19.148;2022-07-29T12:28:09;38.13;22.67
71304;DHT22;59091;47.446;19.148;2022-07-29T12:30:37;38.22;22.76
71304;DHT22;59091;47.446;19.148;2022-07-29T12:33:20;38.03;24.38
71304;DHT22;59091;47.446;19.148;2022-07-29T12:35:48;38.03;23.71
71304;DHT22;59091;47.446;19.148;2022-07-29T12:38:14;38.30;23.63
71304;DHT22;59091;47.446;19.148;2022-07-29T12:40:40;38.17;23.47
71304;DHT22;59091;47.446;19.148;2022-07-29T12:43:07;37.99;24.02
71304;DHT22;59091;47.446;19.148;2022-07-29T12:45:34;37.98;22.52
71304;DHT22;59091;47.446;19.148;2022-07-29T12:48:01;37.86;22.95
71304;DHT22;59091;47.446;19.148;2022-07-29T12:50:26;37.61;22.97
71304;DHT22;59091;47.446;19.148;2022-07-29T12:52:52;37.37;23.47
71304;DHT22;59091;47.446;19.148;2022-07-29T12:58:04;37.52;24.13
71304;DHT22;59091;47.446;19.148;2022-07-29T13:00:30;37.69;24.20
71304;DHT22;59091;47.446;19.148;2022-07-29T13:02:57;37.76;24.38
71304;DHT22;59091;47.446;19.148;2022-07-29T13:05:22;37.92;23.66
71304;DHT22;59091;47.446;19.148;2022-07-29T13:07:49;38.12;23.76
71304;DHT22;59091;47.446;19.148;2022-07-29T13:10:20;38.08;23.12
71304;DHT22;59091;47.446;19.148;2022-07-29T13:13:09;37.48;22.33
71304;DHT22;59091;47.446;19.148;2022-07-29T13:15:41;37.52;21.98
71304;DHT22;59091;47.446;19.148;2022-07-29T13:18:26;37.31;22.45
71304;DHT22;59091;47.446;19.148;2022-07-29T13:20:52;37.02;23.08
71304;DHT22;59091;47.446;19.148;2022-07-29T13:23:17;37.14;24.17
71304;DHT22;59091;47.446;19.148;2022-07-29T13:25:43;37.06;23.04
71304;DHT22;59091;47.446;19.148;2022-07-29T13:28:08;37.00;24.39
71304;DHT22;59091;47.446;19.148;2022-07-29T13:30:34;37.21;24.50
71304;DHT22;59091;47.446;19.148;2022-07-29T13:32:59;37.07;24.50
71304;DHT22;59091;47.446;19.148;2022-07-29T13:35:25;37.11;23.24
71304;DHT22;59091;47.446;19.148;2022-07-29T13:37:50;36.97;24.24
71304;DHT22;59091;47.446;19.148;2022-07-29T13:40:16;37.01;25.07
71304;DHT22;59091;47.446;19.148;2022-07-29T13:42:41;37.06;24.35
71304;DHT22;59091;47.446;19.148;2022-07-29T13:45:08;37.22;24.39
71304;DHT22;59091;47.446;19.148;2022-07-29T13:47:34;37.45;23.69
71304;DHT22;59091;47.446;19.148;2022-07-29T13:50:01;37.38;22.86
71304;DHT22;59091;47.446;19.148;2022-07-29T13:52:26;37.32;22.67
71304;DHT22;59091;47.446;19.148;2022-07-29T13:54:52;37.49;23.10
71304;DHT22;59091;47.446;19.148;2022-07-29T13:57:17;37.45;23.44
71304;DHT22;59091;47.446;19.148;2022-07-29T13:59:43;37.38;23.22
71304;DHT22;59091;47.446;19.148;2022-07-29T14:02:09;37.55;23.70
71304;DHT22;59091;47.446;19.148;2022-07-29T14:04:35;37.76;23.83
71304;DHT22;59091;47.446;19.148;2022-07-29T14:07:01;37.88;23.93
71304;DHT22;59091;47.446;19.148;2022-07-29T14:09:27;37.94;23.12
71304;DHT22;59091;47.446;19.148;2022-07-29T14:11:52;37.88;23.13
71304;DHT22;59091;47.446;19.148;2022-07-29T14:14:18;37.92;22.49
71304;DHT22;59091;47.446;19.148;2022-07-29T14:16:44;37.96;23.59
71304;DHT22;59091;47.446;19.148;2022-07-29T14:19:09;37.79;23.38
71304;DHT22;59091;47.446;19.148;2022-07-29T14:21:36;37.66;23.71
71304;DHT22;59091;47.446;19.148;2022-07-29T14:24:02;37.64;23.66
71304;DHT22;59091;47.446;19.148;2022-07-29T14:26:27;37.62;22.57
71304;DHT22;59091;47.446;19.148;2022-07-29T14:28:53;37.62;22.70
71304;DHT22;59091;47.446;19.148;2022-07-29T14:31:18;37.76;23.29
71304;DHT22;59091;47.446;19.148;2022-07-29T14:33:44;37.89;23.00
71304;DHT22;59091;47.446;19.148;2022-07-29T14:36:09;37.88;22.60
71304;DHT22;59091;47.446;19.148;2022-07-29T14:38:35;37.65;22.12
71304;DHT22;59091;47.446;19.148;2022-07-29T14:41:02;37.72;22.17
71304;DHT22;59091;47.446;19.148;2022-07-29T14:43:27;37.85;22.88
71304;DHT22;59091;47.446;19.148;2022-07-29T14:45:53;37.94;22.43
71304;DHT22;59091;47.446;19.148;2022-07-29T14:48:18;37.94;22.72
71304;DHT22;59091;47.446;19.148;2022-07-29T14:50:44;37.65;22.40
71304;DHT22;59091;47.446;19.148;2022-07-29T14:53:09;37.68;22.33
71304;DHT22;59091;47.446;19.148;2022-07-29T14:55:35;37.76;23.01
71304;DHT22;59091;47.446;19.148;2022-07-29T14:58:00;37.81;22.76
71304;DHT22;59091;47.446;19.148;2022-07-29T15:00:26;37.76;23.36
71304;DHT22;59091;47.446;19.148;2022-07-29T15:02:51;37.79;23.41
71304;DHT22;59091;47.446;19.148;2022-07-29T15:05:17;37.82;23.66
71304;DHT22;59091;47.446;19.148;2022-07-29T15:07:42;37.78;23.52
71304;DHT22;59091;47.446;19.148;2022-07-29T15:10:08;37.22;23.83
71304;DHT22;59091;47.446;19.148;2022-07-29T15:12:34;37.42;23.71
71304;DHT22;59091;47.446;19.148;2022-07-29T15:14:59;37.21;24.44
71304;DHT22;59091;47.446;19.148;2022-07-29T15:17:25;37.28;24.11
71304;DHT22;59091;47.446;19.148;2022-07-29T15:20:09;36.80;23.44
71304;DHT22;59091;47.446;19.148;2022-07-29T15:22:34;36.62;23.22
71304;DHT22;59091;47.446;19.148;2022-07-29T15:24:59;36.73;23.50
71304;DHT22;59091;47.446;19.148;2022-07-29T15:27:25;36.84;23.74
71304;DHT22;59091;47.446;19.148;2022-07-29T15:29:50;36.91;23.63
71304;DHT22;59091;47.446;19.148;2022-07-29T15:32:16;36.88;23.90
71304;DHT22;59091;47.446;19.148;2022-07-29T15:34:41;36.97;23.81
71304;DHT22;59091;47.446;19.148;2022-07-29T15:37:07;37.13;23.85
71304;DHT22;59091;47.446;19.148;2022-07-29T15:39:32;37.01;24.35
71304;DHT22;59091;47.446;19.148;2022-07-29T15:41:58;36.95;24.30
71304;DHT22;59091;47.446;19.148;2022-07-29T15:44:25;36.98;23.65
71304;DHT22;59091;47.446;19.148;2022-07-29T15:46:50;36.95;24.06
71304;DHT22;59091;47.446;19.148;2022-07-29T15:49:29;36.59;24.11
71304;DHT22;59091;47.446;19.148;2022-07-29T15:51:58;36.66;24.00
71304;DHT22;59091;47.446;19.148;2022-07-29T15:54:24;36.53;24.62
71304;DHT22;59091;47.446;19.148;2022-07-29T15:56:50;36.54;24.58
71304;DHT22;59091;47.446;19.148;2022-07-29T15:59:15;36.39;23.91